SHT8H EGLL-EGPH
Flight info
| Callsign | SHT8H |
|---|---|
| Flight time | 0h 54m |
| Altitude | 32000 |
| Route | ULTIB1J ULTIB T420 TNT UN57 POL UN601 RIBEL DCT INPIP INPIP1E |
| Aircraft | A319/M-SDE3FGIJ1KRWXY/LB1 |
Departure
| Time | 2026-04-23 13:55 |
|---|---|
| Airport | London Heathrow Airport (EGLL) |
Arrival
| Time | 2026-04-23 14:49 |
|---|---|
| Airport | Edinburgh Airport (EGPH) |
| Time | Latitude | Longitude | Altitude | Speed | Heading |
|---|---|---|---|---|---|
| 2026-04-23 13:11 | 51.46835 | -0.48619 | 90 ft | 0 kts | 179° |
| 2026-04-23 13:11 | 51.46836 | -0.48619 | 91 ft | 0 kts | 180° |
| 2026-04-23 13:44 | 51.46856 | -0.48620 | 90 ft | 2 kts | 180° |
| 2026-04-23 13:44 | 51.46874 | -0.48613 | 86 ft | 4 kts | 250° |
| 2026-04-23 13:44 | 51.46877 | -0.48575 | 86 ft | 3 kts | 269° |
| 2026-04-23 13:45 | 51.46877 | -0.48569 | 86 ft | 0 kts | 269° |
| 2026-04-23 13:50 | 51.46877 | -0.48575 | 86 ft | 1 kts | 268° |
| 2026-04-23 13:50 | 51.46876 | -0.48592 | 88 ft | 2 kts | 268° |
| 2026-04-23 13:50 | 51.46876 | -0.48614 | 88 ft | 3 kts | 270° |
| 2026-04-23 13:50 | 51.46877 | -0.48648 | 87 ft | 2 kts | 271° |
| 2026-04-23 13:51 | 51.46877 | -0.48691 | 86 ft | 5 kts | 270° |
| 2026-04-23 13:51 | 51.46869 | -0.48740 | 87 ft | 5 kts | 224° |
| 2026-04-23 13:51 | 51.46836 | -0.48750 | 87 ft | 1 kts | 182° |
| 2026-04-23 13:51 | 51.46817 | -0.48750 | 86 ft | 4 kts | 180° |
| 2026-04-23 13:52 | 51.46790 | -0.48749 | 86 ft | 5 kts | 179° |
| 2026-04-23 13:52 | 51.46749 | -0.48749 | 86 ft | 7 kts | 180° |
| 2026-04-23 13:52 | 51.46719 | -0.48749 | 86 ft | 4 kts | 180° |
| 2026-04-23 13:52 | 51.46688 | -0.48749 | 86 ft | 5 kts | 180° |
| 2026-04-23 13:53 | 51.46658 | -0.48749 | 86 ft | 1 kts | 179° |
| 2026-04-23 13:53 | 51.46639 | -0.48749 | 86 ft | 4 kts | 182° |
| 2026-04-23 13:53 | 51.46606 | -0.48763 | 90 ft | 6 kts | 197° |
| 2026-04-23 13:53 | 51.46567 | -0.48784 | 86 ft | 6 kts | 198° |
| 2026-04-23 13:54 | 51.46521 | -0.48789 | 86 ft | 6 kts | 166° |
| 2026-04-23 13:54 | 51.46488 | -0.48737 | 87 ft | 7 kts | 122° |
| 2026-04-23 13:54 | 51.46478 | -0.48694 | 88 ft | 1 kts | 96° |
| 2026-04-23 13:54 | 51.46478 | -0.48613 | 86 ft | 27 kts | 90° |
| 2026-04-23 13:55 | 51.46482 | -0.47973 | 87 ft | 88 kts | 89° |
| 2026-04-23 13:55 | 51.46484 | -0.46676 | 118 ft | 139 kts | 88° |
| 2026-04-23 13:55 | 51.46492 | -0.45090 | 733 ft | 144 kts | 90° |
| 2026-04-23 13:55 | 51.46513 | -0.43493 | 1503 ft | 147 kts | 89° |
| 2026-04-23 13:56 | 51.46596 | -0.41742 | 1987 ft | 169 kts | 75° |
| 2026-04-23 13:56 | 51.47256 | -0.40000 | 2408 ft | 199 kts | 52° |
| 2026-04-23 13:56 | 51.48195 | -0.38222 | 2983 ft | 223 kts | 53° |
| 2026-04-23 13:56 | 51.49243 | -0.36215 | 3654 ft | 246 kts | 53° |
| 2026-04-23 13:57 | 51.50358 | -0.34073 | 4017 ft | 250 kts | 53° |
| 2026-04-23 13:57 | 51.51481 | -0.31921 | 4393 ft | 253 kts | 53° |
| 2026-04-23 13:57 | 51.52398 | -0.29517 | 4773 ft | 252 kts | 72° |
| 2026-04-23 13:57 | 51.52970 | -0.26854 | 5099 ft | 253 kts | 74° |
| 2026-04-23 13:58 | 51.53773 | -0.24363 | 5353 ft | 258 kts | 52° |
| 2026-04-23 13:58 | 51.55246 | -0.22659 | 5601 ft | 268 kts | 24° |
| 2026-04-23 13:58 | 51.57123 | -0.22333 | 5859 ft | 279 kts | 354° |
| 2026-04-23 13:58 | 51.59042 | -0.22982 | 6898 ft | 281 kts | 352° |
| 2026-04-23 13:59 | 51.60957 | -0.23628 | 7954 ft | 283 kts | 349° |
| 2026-04-23 13:59 | 51.62803 | -0.24831 | 8949 ft | 290 kts | 333° |
| 2026-04-23 13:59 | 51.64554 | -0.26474 | 9963 ft | 293 kts | 332° |
| 2026-04-23 13:59 | 51.66326 | -0.28167 | 10818 ft | 303 kts | 332° |
| 2026-04-23 14:00 | 51.67557 | -0.29347 | 11074 ft | 319 kts | 332° |
| 2026-04-23 14:00 | 51.70195 | -0.31887 | 11729 ft | 340 kts | 332° |
| 2026-04-23 14:00 | 51.72260 | -0.33886 | 12423 ft | 350 kts | 332° |
| 2026-04-23 14:00 | 51.74397 | -0.35956 | 12955 ft | 363 kts | 332° |
| 2026-04-23 14:01 | 51.76557 | -0.38048 | 13657 ft | 369 kts | 332° |
| 2026-04-23 14:01 | 51.78769 | -0.40195 | 14481 ft | 369 kts | 332° |
| 2026-04-23 14:01 | 51.80993 | -0.42355 | 15235 ft | 371 kts | 332° |
| 2026-04-23 14:01 | 51.83192 | -0.44487 | 15956 ft | 374 kts | 332° |
| 2026-04-23 14:02 | 51.85442 | -0.46669 | 16673 ft | 378 kts | 332° |
| 2026-04-23 14:02 | 51.87716 | -0.48874 | 17378 ft | 381 kts | 332° |
| 2026-04-23 14:02 | 51.90007 | -0.51102 | 18099 ft | 385 kts | 332° |
| 2026-04-23 14:02 | 51.92314 | -0.53348 | 18808 ft | 389 kts | 332° |
| 2026-04-23 14:03 | 51.94646 | -0.55615 | 19430 ft | 393 kts | 332° |
| 2026-04-23 14:03 | 51.96966 | -0.57879 | 20042 ft | 396 kts | 331° |
| 2026-04-23 14:03 | 51.99339 | -0.60204 | 20680 ft | 400 kts | 331° |
| 2026-04-23 14:03 | 52.01732 | -0.62551 | 21303 ft | 403 kts | 331° |
| 2026-04-23 14:04 | 52.04138 | -0.64914 | 21917 ft | 407 kts | 331° |
| 2026-04-23 14:04 | 52.06589 | -0.67321 | 22474 ft | 411 kts | 331° |
| 2026-04-23 14:04 | 52.09055 | -0.69747 | 23046 ft | 415 kts | 331° |
| 2026-04-23 14:04 | 52.11508 | -0.72164 | 23612 ft | 417 kts | 330° |
| 2026-04-23 14:05 | 52.14010 | -0.74632 | 24123 ft | 421 kts | 331° |
| 2026-04-23 14:05 | 52.16506 | -0.77093 | 24559 ft | 425 kts | 331° |
| 2026-04-23 14:05 | 52.19046 | -0.79600 | 24984 ft | 429 kts | 331° |
| 2026-04-23 14:05 | 52.21615 | -0.82137 | 25420 ft | 432 kts | 330° |
| 2026-04-23 14:06 | 52.24194 | -0.84690 | 25848 ft | 435 kts | 330° |
| 2026-04-23 14:06 | 52.26795 | -0.87271 | 26296 ft | 438 kts | 330° |
| 2026-04-23 14:06 | 52.28536 | -0.88998 | 26543 ft | 441 kts | 329° |
| 2026-04-23 14:06 | 52.31173 | -0.91621 | 26911 ft | 446 kts | 329° |
| 2026-04-23 14:07 | 52.33855 | -0.94295 | 27328 ft | 450 kts | 329° |
| 2026-04-23 14:07 | 52.39209 | -0.99642 | 28167 ft | 456 kts | 329° |
| 2026-04-23 14:07 | 52.41901 | -1.02338 | 28979 ft | 447 kts | 330° |
| 2026-04-23 14:08 | 52.44558 | -1.04999 | 29537 ft | 445 kts | 330° |
| 2026-04-23 14:08 | 52.47171 | -1.07619 | 29979 ft | 446 kts | 330° |
| 2026-04-23 14:08 | 52.49833 | -1.10291 | 30346 ft | 449 kts | 330° |
| 2026-04-23 14:08 | 52.52520 | -1.12991 | 30636 ft | 453 kts | 329° |
| 2026-04-23 14:09 | 52.55218 | -1.15706 | 30869 ft | 456 kts | 330° |
| 2026-04-23 14:09 | 52.57941 | -1.18452 | 31166 ft | 459 kts | 330° |
| 2026-04-23 14:09 | 52.60628 | -1.21165 | 31541 ft | 459 kts | 330° |
| 2026-04-23 14:09 | 52.63343 | -1.23905 | 31809 ft | 456 kts | 330° |
| 2026-04-23 14:10 | 52.66050 | -1.26640 | 32056 ft | 456 kts | 329° |
| 2026-04-23 14:10 | 52.68769 | -1.29393 | 32291 ft | 456 kts | 330° |
| 2026-04-23 14:10 | 52.74031 | -1.34750 | 32500 ft | 435 kts | 329° |
| 2026-04-23 14:11 | 52.79173 | -1.40009 | 32484 ft | 434 kts | 329° |
| 2026-04-23 14:11 | 52.84283 | -1.45233 | 32495 ft | 434 kts | 329° |
| 2026-04-23 14:12 | 52.89446 | -1.50532 | 32494 ft | 436 kts | 328° |
| 2026-04-23 14:12 | 52.94811 | -1.54745 | 32486 ft | 416 kts | 340° |
| 2026-04-23 14:13 | 53.00167 | -1.58206 | 32478 ft | 410 kts | 339° |
| 2026-04-23 14:13 | 53.05487 | -1.61678 | 32487 ft | 411 kts | 339° |
| 2026-04-23 14:14 | 53.10765 | -1.65176 | 32480 ft | 410 kts | 339° |
| 2026-04-23 14:14 | 53.16055 | -1.68799 | 32479 ft | 411 kts | 339° |
| 2026-04-23 14:15 | 53.21354 | -1.72448 | 32482 ft | 411 kts | 339° |
| 2026-04-23 14:15 | 53.26630 | -1.76070 | 32469 ft | 411 kts | 339° |
| 2026-04-23 14:16 | 53.31919 | -1.79700 | 32470 ft | 412 kts | 338° |
| 2026-04-23 14:16 | 53.37238 | -1.83354 | 32464 ft | 412 kts | 338° |
| 2026-04-23 14:17 | 53.42525 | -1.87002 | 32470 ft | 412 kts | 339° |
| 2026-04-23 14:17 | 53.47843 | -1.90670 | 32473 ft | 413 kts | 339° |
| 2026-04-23 14:18 | 53.53166 | -1.94355 | 32479 ft | 413 kts | 339° |
| 2026-04-23 14:18 | 53.58461 | -1.98049 | 32477 ft | 413 kts | 338° |
| 2026-04-23 14:19 | 53.63744 | -2.01746 | 32478 ft | 413 kts | 338° |
| 2026-04-23 14:19 | 53.69058 | -2.05473 | 32474 ft | 413 kts | 339° |
| 2026-04-23 14:20 | 53.74361 | -2.09183 | 32464 ft | 413 kts | 338° |
| 2026-04-23 14:20 | 53.79660 | -2.12900 | 32491 ft | 411 kts | 338° |
| 2026-04-23 14:21 | 53.84949 | -2.16622 | 32506 ft | 409 kts | 338° |
| 2026-04-23 14:21 | 53.90166 | -2.20368 | 32502 ft | 408 kts | 337° |
| 2026-04-23 14:22 | 53.95374 | -2.24271 | 32499 ft | 408 kts | 337° |
| 2026-04-23 14:22 | 54.00543 | -2.28165 | 32488 ft | 408 kts | 337° |
| 2026-04-23 14:23 | 54.05749 | -2.31953 | 32479 ft | 408 kts | 338° |
| 2026-04-23 14:23 | 54.11044 | -2.35551 | 32481 ft | 408 kts | 339° |
| 2026-04-23 14:24 | 54.16299 | -2.39112 | 32479 ft | 408 kts | 339° |
| 2026-04-23 14:24 | 54.21569 | -2.42759 | 32479 ft | 408 kts | 338° |
| 2026-04-23 14:25 | 54.26815 | -2.46429 | 32473 ft | 408 kts | 338° |
| 2026-04-23 14:25 | 54.32087 | -2.50131 | 32473 ft | 409 kts | 338° |
| 2026-04-23 14:26 | 54.37337 | -2.53812 | 32471 ft | 409 kts | 338° |
| 2026-04-23 14:26 | 54.42607 | -2.57520 | 32464 ft | 409 kts | 338° |
| 2026-04-23 14:27 | 54.47892 | -2.61248 | 32465 ft | 409 kts | 338° |
| 2026-04-23 14:27 | 54.53179 | -2.64974 | 32327 ft | 411 kts | 338° |
| 2026-04-23 14:28 | 54.55791 | -2.66820 | 32074 ft | 410 kts | 338° |
| 2026-04-23 14:28 | 54.58440 | -2.68703 | 31813 ft | 410 kts | 338° |
| 2026-04-23 14:28 | 54.61097 | -2.70596 | 31557 ft | 413 kts | 338° |
| 2026-04-23 14:28 | 54.63760 | -2.72497 | 31305 ft | 413 kts | 338° |
| 2026-04-23 14:29 | 54.66379 | -2.74364 | 30822 ft | 409 kts | 338° |
| 2026-04-23 14:29 | 54.69012 | -2.76238 | 30236 ft | 407 kts | 338° |
| 2026-04-23 14:29 | 54.71625 | -2.78100 | 29598 ft | 405 kts | 338° |
| 2026-04-23 14:29 | 54.74236 | -2.79967 | 28806 ft | 407 kts | 338° |
| 2026-04-23 14:30 | 54.76855 | -2.81844 | 28211 ft | 404 kts | 338° |
| 2026-04-23 14:30 | 54.79424 | -2.83690 | 27707 ft | 395 kts | 338° |
| 2026-04-23 14:30 | 54.81949 | -2.85505 | 27059 ft | 390 kts | 338° |
| 2026-04-23 14:30 | 54.84451 | -2.87307 | 26386 ft | 387 kts | 338° |
| 2026-04-23 14:31 | 54.86903 | -2.89073 | 25767 ft | 385 kts | 338° |
| 2026-04-23 14:31 | 54.89377 | -2.90856 | 25153 ft | 382 kts | 338° |
| 2026-04-23 14:31 | 54.91826 | -2.92625 | 24529 ft | 380 kts | 337° |
| 2026-04-23 14:31 | 54.94263 | -2.94390 | 23887 ft | 378 kts | 337° |
| 2026-04-23 14:32 | 54.96690 | -2.96149 | 23161 ft | 376 kts | 337° |
| 2026-04-23 14:32 | 54.99101 | -2.97896 | 22527 ft | 375 kts | 337° |
| 2026-04-23 14:32 | 55.01508 | -2.99641 | 21992 ft | 372 kts | 337° |
| 2026-04-23 14:32 | 55.03868 | -3.01358 | 21474 ft | 370 kts | 337° |
| 2026-04-23 14:33 | 55.06260 | -3.03102 | 20947 ft | 367 kts | 337° |
| 2026-04-23 14:33 | 55.08568 | -3.04848 | 20297 ft | 364 kts | 335° |
| 2026-04-23 14:33 | 55.10872 | -3.06692 | 19624 ft | 362 kts | 335° |
| 2026-04-23 14:33 | 55.13158 | -3.08533 | 18994 ft | 359 kts | 335° |
| 2026-04-23 14:34 | 55.15417 | -3.10352 | 18340 ft | 356 kts | 335° |
| 2026-04-23 14:34 | 55.17665 | -3.12150 | 17647 ft | 353 kts | 335° |
| 2026-04-23 14:34 | 55.19891 | -3.13909 | 16982 ft | 350 kts | 334° |
| 2026-04-23 14:34 | 55.22144 | -3.15479 | 16342 ft | 347 kts | 338° |
| 2026-04-23 14:35 | 55.24397 | -3.16930 | 15772 ft | 342 kts | 339° |
| 2026-04-23 14:35 | 55.26602 | -3.18335 | 15332 ft | 339 kts | 339° |
| 2026-04-23 14:35 | 55.28834 | -3.19643 | 14871 ft | 337 kts | 345° |
| 2026-04-23 14:35 | 55.31152 | -3.20231 | 14418 ft | 335 kts | 352° |
| 2026-04-23 14:36 | 55.33374 | -3.21312 | 13930 ft | 330 kts | 333° |
| 2026-04-23 14:36 | 55.35409 | -3.23190 | 13418 ft | 327 kts | 330° |
| 2026-04-23 14:36 | 55.37385 | -3.25091 | 12908 ft | 325 kts | 329° |
| 2026-04-23 14:36 | 55.39356 | -3.26989 | 12432 ft | 324 kts | 329° |
| 2026-04-23 14:37 | 55.41327 | -3.28892 | 12028 ft | 320 kts | 330° |
| 2026-04-23 14:37 | 55.43234 | -3.30735 | 11907 ft | 307 kts | 330° |
| 2026-04-23 14:37 | 55.45082 | -3.32525 | 11692 ft | 299 kts | 330° |
| 2026-04-23 14:37 | 55.46901 | -3.34282 | 11331 ft | 298 kts | 329° |
| 2026-04-23 14:38 | 55.48725 | -3.36039 | 10960 ft | 297 kts | 329° |
| 2026-04-23 14:38 | 55.50523 | -3.37773 | 10618 ft | 297 kts | 329° |
| 2026-04-23 14:38 | 55.52342 | -3.39524 | 10265 ft | 295 kts | 329° |
| 2026-04-23 14:38 | 55.54123 | -3.41236 | 9903 ft | 294 kts | 329° |
| 2026-04-23 14:39 | 55.55919 | -3.42967 | 9534 ft | 292 kts | 329° |
| 2026-04-23 14:39 | 55.57637 | -3.44851 | 9161 ft | 289 kts | 324° |
| 2026-04-23 14:39 | 55.59257 | -3.46965 | 8801 ft | 287 kts | 320° |
| 2026-04-23 14:39 | 55.60804 | -3.49119 | 8476 ft | 285 kts | 320° |
| 2026-04-23 14:40 | 55.62357 | -3.51296 | 8135 ft | 283 kts | 320° |
| 2026-04-23 14:40 | 55.63907 | -3.53474 | 7789 ft | 281 kts | 320° |
| 2026-04-23 14:40 | 55.65412 | -3.55590 | 7333 ft | 279 kts | 320° |
| 2026-04-23 14:40 | 55.66930 | -3.57729 | 6964 ft | 278 kts | 320° |
| 2026-04-23 14:41 | 55.68445 | -3.59863 | 6606 ft | 276 kts | 319° |
| 2026-04-23 14:41 | 55.69927 | -3.61948 | 6465 ft | 267 kts | 319° |
| 2026-04-23 14:41 | 55.71359 | -3.63961 | 6334 ft | 258 kts | 320° |
| 2026-04-23 14:41 | 55.72719 | -3.65873 | 6189 ft | 246 kts | 319° |
| 2026-04-23 14:42 | 55.74045 | -3.67733 | 5740 ft | 241 kts | 320° |
| 2026-04-23 14:42 | 55.75357 | -3.69582 | 5205 ft | 240 kts | 320° |
| 2026-04-23 14:42 | 55.76665 | -3.71424 | 4788 ft | 233 kts | 320° |
| 2026-04-23 14:42 | 55.77888 | -3.73149 | 4665 ft | 216 kts | 319° |
| 2026-04-23 14:43 | 55.79160 | -3.74395 | 4527 ft | 207 kts | 346° |
| 2026-04-23 14:43 | 55.80554 | -3.74530 | 4433 ft | 202 kts | 8° |
| 2026-04-23 14:43 | 55.81887 | -3.73784 | 4335 ft | 201 kts | 30° |
| 2026-04-23 14:43 | 55.82975 | -3.72252 | 4239 ft | 198 kts | 51° |
| 2026-04-23 14:44 | 55.83717 | -3.70233 | 4277 ft | 196 kts | 61° |
| 2026-04-23 14:44 | 55.84446 | -3.68132 | 3976 ft | 198 kts | 61° |
| 2026-04-23 14:44 | 55.85155 | -3.66083 | 3710 ft | 196 kts | 61° |
| 2026-04-23 14:44 | 55.85868 | -3.64010 | 3446 ft | 195 kts | 61° |
| 2026-04-23 14:45 | 55.86565 | -3.61979 | 3198 ft | 193 kts | 61° |
| 2026-04-23 14:45 | 55.87265 | -3.59936 | 2927 ft | 191 kts | 61° |
| 2026-04-23 14:45 | 55.87963 | -3.57897 | 2660 ft | 192 kts | 60° |
| 2026-04-23 14:45 | 55.88646 | -3.55902 | 2405 ft | 186 kts | 61° |
| 2026-04-23 14:46 | 55.89312 | -3.53955 | 2155 ft | 182 kts | 60° |
| 2026-04-23 14:46 | 55.89958 | -3.52061 | 1912 ft | 176 kts | 60° |
| 2026-04-23 14:46 | 55.90561 | -3.50297 | 1688 ft | 155 kts | 60° |
| 2026-04-23 14:46 | 55.91085 | -3.48761 | 1481 ft | 134 kts | 60° |
| 2026-04-23 14:47 | 55.91549 | -3.47400 | 1311 ft | 124 kts | 61° |
| 2026-04-23 14:47 | 55.91988 | -3.46112 | 1141 ft | 119 kts | 60° |
| 2026-04-23 14:47 | 55.92412 | -3.44865 | 979 ft | 117 kts | 60° |
| 2026-04-23 14:47 | 55.92836 | -3.43619 | 810 ft | 117 kts | 59° |
| 2026-04-23 14:48 | 55.93115 | -3.42797 | 699 ft | 116 kts | 59° |
| 2026-04-23 14:48 | 55.93671 | -3.41163 | 487 ft | 115 kts | 58° |
| 2026-04-23 14:48 | 55.93943 | -3.40360 | 388 ft | 113 kts | 60° |
| 2026-04-23 14:48 | 55.94355 | -3.39150 | 232 ft | 114 kts | 59° |
| 2026-04-23 14:49 | 55.94757 | -3.37963 | 115 ft | 102 kts | 59° |
| 2026-04-23 14:49 | 55.95057 | -3.37079 | 113 ft | 59 kts | 58° |
| 2026-04-23 14:49 | 55.95202 | -3.36660 | 114 ft | 29 kts | 59° |
| 2026-04-23 14:49 | 55.95260 | -3.36443 | 111 ft | 13 kts | 94° |
| 2026-04-23 14:50 | 55.95218 | -3.36377 | 114 ft | 6 kts | 149° |
| 2026-04-23 14:50 | 55.95181 | -3.36338 | 115 ft | 7 kts | 149° |
| 2026-04-23 14:50 | 55.95130 | -3.36301 | 114 ft | 8 kts | 198° |
| 2026-04-23 14:50 | 55.95102 | -3.36375 | 115 ft | 6 kts | 234° |
| 2026-04-23 14:51 | 55.95057 | -3.36397 | 114 ft | 7 kts | 158° |
| 2026-04-23 14:51 | 55.95016 | -3.36397 | 113 ft | 6 kts | 217° |
| 2026-04-23 14:51 | 55.94997 | -3.36447 | 116 ft | 3 kts | 239° |
| 2026-04-23 14:51 | 55.94984 | -3.36479 | 116 ft | 4 kts | 226° |
| 2026-04-23 14:52 | 55.94952 | -3.36464 | 113 ft | 6 kts | 145° |
| 2026-04-23 14:52 | 55.94934 | -3.36444 | 114 ft | 3 kts | 150° |
| 2026-04-23 14:52 | 55.94924 | -3.36433 | 115 ft | 1 kts | 150° |
| 2026-04-23 14:52 | 55.94920 | -3.36429 | 115 ft | 1 kts | 149° |
| 2026-04-23 14:53 | 55.94919 | -3.36429 | 115 ft | 0 kts | 149° |